createdAt,value
2023-02-12T00:00:30.149Z,26.03
2023-02-12T00:04:32.825Z,24.27
2023-02-12T00:08:37.709Z,24.70
2023-02-12T00:12:40.424Z,25.70
2023-02-12T00:16:43.101Z,25.83
2023-02-12T00:20:45.847Z,24.27
2023-02-12T00:24:50.141Z,24.70
2023-02-12T00:28:53.416Z,24.50
2023-02-12T00:32:56.383Z,24.37
2023-02-12T00:36:59.087Z,23.63
2023-02-12T00:41:03.156Z,23.97
2023-02-12T00:45:06.671Z,23.47
2023-02-12T00:49:11.407Z,24.93
2023-02-12T00:53:14.229Z,23.77
2023-02-12T00:57:19.985Z,25.27
2023-02-12T01:01:23.094Z,24.93
2023-02-12T01:05:26.157Z,24.60
2023-02-12T01:09:28.897Z,24.07
2023-02-12T01:13:34.312Z,24.27
2023-02-12T01:17:37.143Z,24.30
2023-02-12T01:21:39.933Z,24.87
2023-02-12T01:25:42.895Z,23.97
2023-02-12T01:29:46.985Z,26.17
2023-02-12T01:33:50.220Z,27.87
2023-02-12T01:37:52.959Z,26.13
2023-02-12T01:41:55.666Z,25.70
2023-02-12T01:46:01.570Z,25.17
2023-02-12T01:50:04.745Z,23.87
2023-02-12T01:54:08.886Z,25.37
2023-02-12T01:58:11.644Z,23.00
2023-02-12T02:02:15.904Z,26.17
2023-02-12T02:06:22.279Z,24.30
2023-02-12T02:10:25.041Z,24.80
2023-02-12T02:14:32.515Z,24.43
2023-02-12T02:18:39.156Z,25.27
2023-02-12T02:22:45.083Z,25.37
2023-02-12T02:27:18.448Z,25.73
2023-02-12T02:31:25.241Z,23.53
2023-02-12T02:35:32.226Z,25.53
2023-02-12T02:39:38.797Z,24.80
2023-02-12T02:43:45.339Z,23.83
2023-02-12T02:47:52.409Z,24.60
2023-02-12T02:51:58.982Z,24.33
2023-02-12T02:56:03.828Z,25.00
2023-02-12T03:00:14.209Z,24.67
2023-02-12T03:04:21.114Z,24.53
2023-02-12T03:08:25.275Z,24.47
2023-02-12T03:12:32.873Z,24.70
2023-02-12T03:16:38.414Z,24.17
2023-02-12T03:20:44.823Z,24.83
2023-02-12T03:24:51.222Z,24.67
2023-02-12T03:28:54.457Z,25.13
2023-02-12T03:33:05.351Z,26.07
2023-02-12T03:37:14.426Z,25.73
2023-02-12T03:41:22.145Z,26.13
2023-02-12T03:45:33.600Z,24.67
2023-02-12T03:49:43.250Z,25.30
2023-02-12T03:53:47.487Z,24.87
2023-02-12T03:57:53.786Z,24.87
2023-02-12T04:01:59.438Z,24.60
2023-02-12T04:06:02.463Z,25.80
2023-02-12T04:10:07.975Z,25.47
2023-02-12T04:14:16.897Z,25.83
2023-02-12T04:18:22.537Z,25.83
2023-02-12T04:22:33.511Z,26.40
2023-02-12T04:26:40.566Z,25.67
2023-02-12T04:30:46.932Z,25.30
2023-02-12T04:34:53.382Z,25.33
2023-02-12T04:39:00.098Z,24.60
2023-02-12T04:43:04.257Z,25.07
2023-02-12T04:47:11.681Z,26.10
2023-02-12T04:51:14.657Z,25.97
2023-02-12T04:55:17.770Z,25.67
2023-02-12T04:59:23.233Z,23.73
2023-02-12T05:03:26.256Z,26.83
2023-02-12T05:07:29.219Z,25.67
2023-02-12T05:11:32.258Z,24.53
2023-02-12T05:15:36.325Z,26.13
2023-02-12T05:19:39.279Z,25.77
2023-02-12T05:23:42.393Z,27.17
2023-02-12T05:27:45.098Z,26.70
2023-02-12T05:31:49.502Z,25.47
2023-02-12T05:35:52.650Z,24.90
2023-02-12T05:39:55.477Z,26.17
2023-02-12T05:43:58.174Z,26.17
2023-02-12T05:48:05.292Z,24.57
2023-02-12T05:52:08.013Z,26.70
2023-02-12T05:56:14.986Z,25.90
2023-02-12T06:00:18.337Z,25.67
2023-02-12T06:04:24.533Z,27.23
2023-02-12T06:08:27.697Z,26.10
2023-02-12T06:12:30.393Z,25.20
2023-02-12T06:16:34.156Z,24.93
2023-02-12T06:20:39.702Z,25.50
2023-02-12T06:24:42.712Z,27.10
2023-02-12T06:28:48.921Z,25.47
2023-02-12T06:32:53.770Z,26.17
2023-02-12T06:36:58.659Z,31.23
2023-02-12T06:41:02.862Z,28.13
2023-02-12T06:45:08.212Z,27.83
2023-02-12T06:49:14.191Z,28.13
2023-02-12T06:53:20.416Z,27.03
2023-02-12T06:57:23.282Z,27.10
2023-02-12T07:01:28.245Z,27.30
2023-02-12T07:05:31.058Z,27.17
2023-02-12T07:09:35.150Z,27.77
2023-02-12T07:13:38.519Z,26.87
2023-02-12T07:17:41.531Z,29.97
2023-02-12T07:21:44.302Z,28.77
2023-02-12T07:25:57.503Z,27.63
2023-02-12T07:30:00.344Z,31.20
2023-02-12T07:34:03.086Z,34.27
2023-02-12T07:38:05.795Z,33.53
2023-02-12T07:42:09.874Z,33.87
2023-02-12T07:46:14.457Z,34.00
2023-02-12T07:50:18.039Z,35.10
2023-02-12T07:54:21.592Z,32.70
2023-02-12T07:58:29.194Z,32.17
2023-02-12T08:02:32.278Z,32.97
2023-02-12T08:06:37.553Z,31.03
2023-02-12T08:10:40.230Z,32.73
2023-02-12T08:14:44.271Z,32.57
2023-02-12T08:18:47.520Z,31.40
2023-02-12T08:22:50.529Z,31.90
2023-02-12T08:26:53.580Z,31.97
2023-02-12T08:31:02.618Z,33.03
2023-02-12T08:35:05.824Z,30.03
2023-02-12T08:39:10.693Z,31.40
2023-02-12T08:43:13.429Z,32.83
2023-02-12T08:47:17.467Z,30.03
2023-02-12T08:51:21.685Z,30.00
2023-02-12T08:55:24.383Z,29.33
2023-02-12T08:59:27.727Z,30.43
2023-02-12T09:03:32.167Z,30.00
2023-02-12T09:07:35.665Z,28.37
2023-02-12T09:11:38.423Z,29.57
2023-02-12T09:15:46.278Z,30.27
2023-02-12T09:19:50.327Z,30.27
2023-02-12T09:23:54.849Z,28.43
2023-02-12T09:27:57.748Z,23.37
2023-02-12T09:32:02.581Z,25.30
2023-02-12T09:36:08.649Z,29.80
2023-02-12T09:40:18.279Z,31.00
2023-02-12T09:44:24.692Z,29.77
2023-02-12T09:48:45.916Z,30.63
2023-02-12T09:52:50.546Z,31.10
2023-02-12T09:56:56.395Z,28.47
2023-02-12T10:00:59.180Z,28.40
2023-02-12T10:05:02.828Z,28.67
2023-02-12T10:09:20.424Z,27.70
2023-02-12T10:13:39.522Z,26.73
2023-02-12T10:17:45.266Z,27.33
2023-02-12T10:21:55.107Z,27.43
2023-02-12T10:26:00.799Z,27.70
2023-02-12T10:30:06.021Z,25.77
2023-02-12T10:34:16.843Z,29.10
2023-02-12T10:38:21.980Z,30.13
2023-02-12T10:42:35.295Z,31.40
2023-02-12T10:46:38.337Z,31.20
2023-02-12T10:50:57.233Z,28.50
2023-02-12T10:54:59.900Z,27.30
2023-02-12T11:03:35.946Z,22.20
2023-02-12T11:07:50.913Z,20.87
2023-02-12T11:11:53.712Z,21.67
2023-02-12T11:15:56.700Z,28.77
2023-02-12T11:20:09.759Z,28.93
2023-02-12T11:24:37.816Z,28.10
2023-02-12T11:28:40.732Z,28.00
2023-02-12T11:32:44.212Z,28.73
2023-02-12T11:36:49.994Z,24.93
2023-02-12T11:40:59.902Z,24.97
2023-02-12T11:45:03.972Z,26.87
2023-02-12T11:49:10.245Z,27.00
2023-02-12T11:53:23.282Z,26.33
2023-02-12T11:57:40.003Z,24.27
2023-02-12T12:01:42.894Z,24.87
2023-02-12T12:05:49.365Z,23.03
2023-02-12T12:09:59.419Z,24.80
2023-02-12T12:14:05.234Z,23.30
2023-02-12T12:18:33.466Z,23.83
2023-02-12T12:22:43.615Z,24.03
2023-02-12T12:26:50.952Z,25.53
2023-02-12T12:31:07.680Z,25.40
2023-02-12T12:35:12.291Z,23.27
2023-02-12T12:39:27.508Z,24.13
2023-02-12T12:43:41.301Z,26.30
2023-02-12T12:47:54.513Z,27.70
2023-02-12T12:52:14.111Z,26.70
2023-02-12T12:56:36.538Z,28.17
2023-02-12T13:01:00.122Z,25.67
2023-02-12T13:05:48.553Z,27.33
2023-02-12T13:10:14.685Z,27.23
2023-02-12T13:14:32.954Z,27.30
2023-02-12T13:18:45.819Z,28.70
2023-02-12T13:22:55.652Z,27.10
2023-02-12T13:27:05.111Z,26.37
2023-02-12T13:31:31.807Z,28.53
2023-02-12T13:35:43.382Z,30.00
2023-02-12T13:39:48.339Z,29.77
2023-02-12T13:44:00.915Z,26.20
2023-02-12T13:48:26.634Z,25.17
2023-02-12T13:52:36.454Z,26.30
2023-02-12T13:56:43.504Z,27.10
2023-02-12T14:00:58.975Z,26.33
2023-02-12T14:05:03.150Z,24.53
2023-02-12T14:09:12.320Z,26.03
2023-02-12T14:13:21.176Z,25.97
2023-02-12T14:17:53.670Z,24.30
2023-02-12T14:21:56.424Z,27.00
2023-02-12T14:26:02.799Z,24.60
2023-02-12T14:30:25.927Z,24.33
2023-02-12T14:34:50.049Z,25.90
2023-02-12T14:39:00.505Z,24.60
2023-02-12T14:43:20.251Z,26.87
2023-02-12T14:47:53.764Z,25.63
2023-02-12T14:51:59.785Z,24.87
2023-02-12T14:56:04.751Z,22.87
2023-02-12T15:00:23.009Z,22.93
2023-02-12T15:04:27.846Z,23.70
2023-02-12T15:08:35.936Z,22.70
2023-02-12T15:12:41.294Z,23.67
2023-02-12T15:16:53.124Z,23.60
2023-02-12T15:21:01.864Z,22.97
2023-02-12T15:25:24.623Z,23.40
2023-02-12T15:29:29.671Z,23.47
2023-02-12T15:33:35.200Z,24.47
2023-02-12T15:37:38.468Z,24.03
2023-02-12T15:41:42.026Z,21.63
2023-02-12T15:45:51.513Z,21.37
2023-02-12T15:50:00.526Z,21.60
2023-02-12T15:54:06.596Z,21.90
2023-02-12T15:58:21.639Z,23.53
2023-02-12T16:02:28.449Z,23.27
2023-02-12T16:06:37.651Z,21.17
2023-02-12T16:10:43.935Z,23.20
2023-02-12T16:14:49.436Z,22.70
2023-02-12T16:19:19.640Z,23.27
2023-02-12T16:23:27.746Z,24.63
2023-02-12T16:27:32.023Z,32.87
2023-02-12T16:31:35.605Z,31.87
2023-02-12T16:35:38.749Z,29.37
2023-02-12T16:40:20.746Z,40.03
2023-02-12T16:44:31.574Z,56.37
2023-02-12T16:48:39.420Z,48.87
2023-02-12T16:52:42.726Z,48.30
2023-02-12T16:56:48.169Z,93.10
2023-02-12T17:00:51.016Z,63.77
2023-02-12T17:04:56.811Z,46.90
2023-02-12T17:09:01.945Z,28.80
2023-02-12T17:13:06.243Z,28.80
2023-02-12T17:17:09.590Z,37.97
2023-02-12T17:21:21.381Z,38.80
2023-02-12T17:25:25.659Z,34.03
2023-02-12T17:29:30.724Z,29.13
2023-02-12T17:33:33.821Z,29.77
2023-02-12T17:37:36.594Z,27.53
2023-02-12T17:41:40.596Z,32.50
2023-02-12T17:45:45.588Z,29.83
2023-02-12T17:49:48.403Z,24.53
2023-02-12T17:53:51.272Z,22.23
2023-02-12T17:57:54.352Z,23.57
2023-02-12T18:02:00.507Z,23.23
2023-02-12T18:06:03.672Z,22.70
2023-02-12T18:10:07.535Z,22.63
2023-02-12T18:14:12.318Z,20.27
2023-02-12T18:18:17.932Z,19.57
2023-02-12T18:22:21.193Z,20.33
2023-02-12T18:26:24.543Z,21.53
2023-02-12T18:30:27.372Z,22.77
2023-02-12T18:34:31.526Z,24.33
2023-02-12T18:38:34.988Z,26.67
2023-02-12T18:42:37.739Z,26.83
2023-02-12T18:46:40.742Z,26.13
2023-02-12T18:50:44.916Z,32.17
2023-02-12T18:54:47.675Z,32.10
2023-02-12T18:58:55.978Z,34.00
2023-02-12T19:02:58.792Z,35.60
2023-02-12T19:07:03.248Z,33.33
2023-02-12T19:11:06.899Z,36.73
2023-02-12T19:15:10.586Z,44.10
2023-02-12T19:19:14.190Z,41.83
2023-02-12T19:23:18.360Z,38.67
2023-02-12T19:27:21.137Z,13.67
2023-02-12T19:31:28.704Z,25.33
2023-02-12T19:35:31.964Z,29.47
2023-02-12T19:39:36.093Z,30.17
2023-02-12T19:43:39.339Z,32.73
2023-02-12T19:47:42.378Z,32.07
2023-02-12T19:51:48.198Z,31.00
2023-02-12T19:55:52.658Z,30.57
2023-02-12T19:59:55.490Z,30.63
2023-02-12T20:03:58.599Z,29.37
2023-02-12T20:08:01.787Z,30.43
2023-02-12T20:12:07.100Z,28.57
2023-02-12T20:16:11.727Z,25.93
2023-02-12T20:20:15.298Z,26.20
2023-02-12T20:24:20.935Z,28.90
2023-02-12T20:28:25.862Z,30.83
2023-02-12T20:32:28.958Z,30.87
2023-02-12T20:36:33.368Z,31.53
2023-02-12T20:40:36.364Z,31.73
2023-02-12T20:44:40.483Z,31.97
2023-02-12T20:48:43.532Z,33.67
2023-02-12T20:52:46.255Z,29.43
2023-02-12T20:56:50.202Z,30.80
2023-02-12T21:00:57.057Z,31.73
2023-02-12T21:04:59.962Z,29.53
2023-02-12T21:09:02.726Z,28.80
2023-02-12T21:13:05.783Z,28.97
2023-02-12T21:17:09.929Z,27.73
2023-02-12T21:21:14.387Z,28.90
2023-02-12T21:25:17.572Z,24.77
2023-02-12T21:29:21.023Z,23.07
2023-02-12T21:33:25.310Z,24.03
2023-02-12T21:37:28.074Z,23.27
2023-02-12T21:41:32.144Z,24.53
2023-02-12T21:45:34.988Z,23.60
2023-02-12T21:49:39.353Z,23.27
2023-02-12T21:53:42.112Z,20.80
2023-02-12T21:57:45.037Z,21.47
2023-02-12T22:01:49.115Z,22.77
2023-02-12T22:05:53.416Z,22.67
2023-02-12T22:09:57.045Z,23.63
2023-02-12T22:14:00.030Z,23.10
2023-02-12T22:18:02.877Z,23.90
2023-02-12T22:22:07.187Z,24.70
2023-02-12T22:26:11.428Z,24.47
2023-02-12T22:30:14.620Z,24.73
2023-02-12T22:34:19.123Z,23.97
2023-02-12T22:38:25.505Z,23.77
2023-02-12T22:42:28.606Z,24.47
2023-02-12T22:46:31.385Z,23.50
2023-02-12T22:50:34.116Z,23.20
2023-02-12T22:54:38.414Z,25.47
2023-02-12T22:58:41.332Z,22.27
2023-02-12T23:02:43.995Z,22.17
2023-02-12T23:06:47.512Z,21.50
2023-02-12T23:10:51.634Z,20.07
2023-02-12T23:14:54.357Z,19.73
2023-02-12T23:18:57.757Z,22.00
2023-02-12T23:23:00.473Z,21.53
2023-02-12T23:27:04.583Z,21.93
2023-02-12T23:31:07.720Z,23.80
2023-02-12T23:35:10.441Z,24.23
2023-02-12T23:39:14.004Z,25.30
2023-02-12T23:43:21.186Z,23.17
2023-02-12T23:47:25.912Z,24.20
2023-02-12T23:51:28.602Z,24.33
2023-02-12T23:55:31.370Z,22.70
2023-02-12T23:59:35.653Z,23.23
